sensor_id;sensor_type;location;lat;lon;timestamp;pressure;altitude;pressure_sealevel;temperature;humidity
47592;BME280;33317;33.356;-117.184;2023-07-13T00:01:15;99027.47;;;29.03;23.86
47592;BME280;33317;33.356;-117.184;2023-07-13T00:03:45;99028.05;;;28.49;24.21
47592;BME280;33317;33.356;-117.184;2023-07-13T00:06:13;99033.22;;;29.21;23.60
47592;BME280;33317;33.356;-117.184;2023-07-13T00:08:41;99033.97;;;29.42;23.38
47592;BME280;33317;33.356;-117.184;2023-07-13T00:11:10;99034.92;;;28.98;23.79
47592;BME280;33317;33.356;-117.184;2023-07-13T00:13:38;99037.74;;;28.55;23.98
47592;BME280;33317;33.356;-117.184;2023-07-13T00:16:07;99036.19;;;29.04;23.84
47592;BME280;33317;33.356;-117.184;2023-07-13T00:18:36;99035.53;;;29.19;23.43
47592;BME280;33317;33.356;-117.184;2023-07-13T00:21:04;99035.52;;;29.22;23.66
47592;BME280;33317;33.356;-117.184;2023-07-13T00:23:33;99034.16;;;29.19;23.43
47592;BME280;33317;33.356;-117.184;2023-07-13T00:26:02;99037.02;;;29.24;23.41
47592;BME280;33317;33.356;-117.184;2023-07-13T00:28:32;99036.08;;;29.66;23.25
47592;BME280;33317;33.356;-117.184;2023-07-13T00:31:01;99033.10;;;29.45;23.16
47592;BME280;33317;33.356;-117.184;2023-07-13T00:33:31;99028.57;;;29.30;23.50
47592;BME280;33317;33.356;-117.184;2023-07-13T00:35:59;99024.75;;;29.07;23.45
47592;BME280;33317;33.356;-117.184;2023-07-13T00:38:30;99028.36;;;28.94;23.66
47592;BME280;33317;33.356;-117.184;2023-07-13T00:40:59;99032.87;;;29.39;23.36
47592;BME280;33317;33.356;-117.184;2023-07-13T00:43:28;99029.06;;;29.90;23.16
47592;BME280;33317;33.356;-117.184;2023-07-13T00:46:18;99031.86;;;29.89;22.91
47592;BME280;33317;33.356;-117.184;2023-07-13T00:48:49;99027.45;;;29.73;23.02
47592;BME280;33317;33.356;-117.184;2023-07-13T00:51:25;99026.40;;;29.66;23.02
47592;BME280;33317;33.356;-117.184;2023-07-13T00:53:58;99030.39;;;29.71;23.35
47592;BME280;33317;33.356;-117.184;2023-07-13T00:56:27;99029.70;;;29.51;23.30
47592;BME280;33317;33.356;-117.184;2023-07-13T00:58:57;99032.76;;;29.87;23.27
47592;BME280;33317;33.356;-117.184;2023-07-13T01:01:27;99030.74;;;29.43;23.17
47592;BME280;33317;33.356;-117.184;2023-07-13T01:03:55;99035.51;;;29.52;23.37
47592;BME280;33317;33.356;-117.184;2023-07-13T01:06:24;99039.19;;;29.36;23.48
47592;BME280;33317;33.356;-117.184;2023-07-13T01:08:52;99039.61;;;29.45;23.21
47592;BME280;33317;33.356;-117.184;2023-07-13T01:11:22;99038.62;;;29.49;23.45
47592;BME280;33317;33.356;-117.184;2023-07-13T01:13:50;99036.96;;;29.64;23.34
47592;BME280;33317;33.356;-117.184;2023-07-13T01:16:25;99037.29;;;29.43;23.70
47592;BME280;33317;33.356;-117.184;2023-07-13T01:18:54;99040.74;;;29.18;23.29
47592;BME280;33317;33.356;-117.184;2023-07-13T01:21:22;99046.91;;;29.91;23.02
47592;BME280;33317;33.356;-117.184;2023-07-13T01:23:50;99050.14;;;29.95;23.16
47592;BME280;33317;33.356;-117.184;2023-07-13T01:26:18;99050.80;;;29.64;23.20
47592;BME280;33317;33.356;-117.184;2023-07-13T01:28:47;99052.71;;;29.75;23.16
47592;BME280;33317;33.356;-117.184;2023-07-13T01:31:16;99054.75;;;29.15;23.47
47592;BME280;33317;33.356;-117.184;2023-07-13T01:33:44;99052.86;;;30.06;23.24
47592;BME280;33317;33.356;-117.184;2023-07-13T01:36:13;99051.11;;;29.64;23.62
47592;BME280;33317;33.356;-117.184;2023-07-13T01:38:41;99052.67;;;29.92;23.64
47592;BME280;33317;33.356;-117.184;2023-07-13T01:41:11;99051.29;;;29.71;23.77
47592;BME280;33317;33.356;-117.184;2023-07-13T01:43:41;99050.44;;;29.71;23.24
47592;BME280;33317;33.356;-117.184;2023-07-13T01:46:09;99049.53;;;28.93;23.66
47592;BME280;33317;33.356;-117.184;2023-07-13T01:48:37;99051.66;;;28.59;23.80
47592;BME280;33317;33.356;-117.184;2023-07-13T01:51:06;99049.85;;;28.84;23.43
47592;BME280;33317;33.356;-117.184;2023-07-13T01:53:34;99048.50;;;29.20;22.96
47592;BME280;33317;33.356;-117.184;2023-07-13T01:56:02;99049.80;;;29.38;22.95
47592;BME280;33317;33.356;-117.184;2023-07-13T01:58:32;99051.25;;;29.15;23.07
47592;BME280;33317;33.356;-117.184;2023-07-13T02:01:01;99052.20;;;29.18;23.04
47592;BME280;33317;33.356;-117.184;2023-07-13T02:03:29;99057.27;;;28.95;22.91
47592;BME280;33317;33.356;-117.184;2023-07-13T02:05:58;99061.29;;;28.16;23.54
47592;BME280;33317;33.356;-117.184;2023-07-13T02:08:27;99059.81;;;27.67;23.84
47592;BME280;33317;33.356;-117.184;2023-07-13T02:10:56;99055.69;;;28.67;23.00
47592;BME280;33317;33.356;-117.184;2023-07-13T02:13:25;99055.26;;;28.98;22.67
47592;BME280;33317;33.356;-117.184;2023-07-13T02:15:54;99060.76;;;29.56;22.45
47592;BME280;33317;33.356;-117.184;2023-07-13T02:18:23;99060.05;;;29.09;23.00
47592;BME280;33317;33.356;-117.184;2023-07-13T02:20:51;99066.22;;;29.51;22.63
47592;BME280;33317;33.356;-117.184;2023-07-13T02:23:20;99066.78;;;29.71;22.76
47592;BME280;33317;33.356;-117.184;2023-07-13T02:25:52;99063.59;;;28.70;23.51
47592;BME280;33317;33.356;-117.184;2023-07-13T02:28:22;99059.98;;;28.80;22.94
47592;BME280;33317;33.356;-117.184;2023-07-13T02:30:50;99064.34;;;29.33;22.55
47592;BME280;33317;33.356;-117.184;2023-07-13T02:33:18;99064.42;;;28.93;22.83
47592;BME280;33317;33.356;-117.184;2023-07-13T02:35:48;99058.19;;;29.12;22.95
47592;BME280;33317;33.356;-117.184;2023-07-13T02:38:16;99063.74;;;29.47;23.00
47592;BME280;33317;33.356;-117.184;2023-07-13T02:40:46;99067.33;;;29.54;23.02
47592;BME280;33317;33.356;-117.184;2023-07-13T02:43:14;99065.28;;;29.75;22.81
47592;BME280;33317;33.356;-117.184;2023-07-13T02:45:48;99065.41;;;28.95;23.07
47592;BME280;33317;33.356;-117.184;2023-07-13T02:48:17;99070.15;;;29.72;22.58
47592;BME280;33317;33.356;-117.184;2023-07-13T02:50:46;99071.77;;;29.37;22.59
47592;BME280;33317;33.356;-117.184;2023-07-13T02:53:15;99077.92;;;29.21;22.42
47592;BME280;33317;33.356;-117.184;2023-07-13T02:55:43;99079.46;;;29.47;22.78
47592;BME280;33317;33.356;-117.184;2023-07-13T02:58:12;99081.99;;;29.75;22.68
47592;BME280;33317;33.356;-117.184;2023-07-13T03:00:40;99081.96;;;29.77;22.82
47592;BME280;33317;33.356;-117.184;2023-07-13T03:03:10;99081.83;;;29.72;22.50
47592;BME280;33317;33.356;-117.184;2023-07-13T03:05:40;99080.91;;;29.29;22.83
47592;BME280;33317;33.356;-117.184;2023-07-13T03:08:09;99083.01;;;29.26;22.77
47592;BME280;33317;33.356;-117.184;2023-07-13T03:10:39;99085.27;;;28.84;23.08
47592;BME280;33317;33.356;-117.184;2023-07-13T03:13:08;99084.86;;;29.00;23.01
47592;BME280;33317;33.356;-117.184;2023-07-13T03:15:36;99089.58;;;28.93;23.26
47592;BME280;33317;33.356;-117.184;2023-07-13T03:18:06;99091.23;;;29.17;23.37
47592;BME280;33317;33.356;-117.184;2023-07-13T03:20:34;99093.61;;;29.66;22.97
47592;BME280;33317;33.356;-117.184;2023-07-13T03:23:04;99095.65;;;28.96;22.99
47592;BME280;33317;33.356;-117.184;2023-07-13T03:25:33;99092.64;;;29.74;22.56
47592;BME280;33317;33.356;-117.184;2023-07-13T03:28:03;99091.42;;;29.67;22.95
47592;BME280;33317;33.356;-117.184;2023-07-13T03:30:32;99092.14;;;29.39;22.95
47592;BME280;33317;33.356;-117.184;2023-07-13T03:33:04;99098.24;;;29.62;23.22
47592;BME280;33317;33.356;-117.184;2023-07-13T03:35:33;99099.60;;;30.02;23.14
47592;BME280;33317;33.356;-117.184;2023-07-13T03:38:05;99096.53;;;29.07;23.33
47592;BME280;33317;33.356;-117.184;2023-07-13T03:40:34;99096.46;;;29.37;22.91
47592;BME280;33317;33.356;-117.184;2023-07-13T03:43:03;99099.34;;;28.74;23.10
47592;BME280;33317;33.356;-117.184;2023-07-13T03:45:32;99099.08;;;29.34;22.92
47592;BME280;33317;33.356;-117.184;2023-07-13T03:48:02;99103.12;;;29.55;22.87
47592;BME280;33317;33.356;-117.184;2023-07-13T03:50:31;99109.38;;;29.98;23.00
47592;BME280;33317;33.356;-117.184;2023-07-13T03:53:00;99111.55;;;29.69;23.03
47592;BME280;33317;33.356;-117.184;2023-07-13T03:55:32;99111.06;;;29.70;23.02
47592;BME280;33317;33.356;-117.184;2023-07-13T03:58:27;99116.71;;;28.98;23.35
47592;BME280;33317;33.356;-117.184;2023-07-13T04:00:59;99124.57;;;29.21;23.20
47592;BME280;33317;33.356;-117.184;2023-07-13T04:03:28;99127.74;;;29.38;22.97
47592;BME280;33317;33.356;-117.184;2023-07-13T04:05:58;99129.43;;;29.38;23.08
47592;BME280;33317;33.356;-117.184;2023-07-13T04:08:28;99131.90;;;29.46;23.43
47592;BME280;33317;33.356;-117.184;2023-07-13T04:10:57;99132.85;;;29.54;23.41
47592;BME280;33317;33.356;-117.184;2023-07-13T04:13:27;99139.44;;;29.87;23.40
47592;BME280;33317;33.356;-117.184;2023-07-13T04:15:57;99138.42;;;29.76;23.18
47592;BME280;33317;33.356;-117.184;2023-07-13T04:18:25;99139.39;;;29.41;23.04
47592;BME280;33317;33.356;-117.184;2023-07-13T04:20:55;99142.87;;;29.14;23.13
47592;BME280;33317;33.356;-117.184;2023-07-13T04:23:27;99142.90;;;29.44;23.22
47592;BME280;33317;33.356;-117.184;2023-07-13T04:25:55;99147.55;;;29.67;23.27
47592;BME280;33317;33.356;-117.184;2023-07-13T04:28:26;99150.40;;;29.93;23.24
47592;BME280;33317;33.356;-117.184;2023-07-13T04:30:54;99159.60;;;29.89;23.33
47592;BME280;33317;33.356;-117.184;2023-07-13T04:33:25;99161.92;;;29.26;23.30
47592;BME280;33317;33.356;-117.184;2023-07-13T04:35:56;99165.98;;;29.32;23.07
47592;BME280;33317;33.356;-117.184;2023-07-13T04:38:26;99168.66;;;28.99;23.45
47592;BME280;33317;33.356;-117.184;2023-07-13T04:40:59;99174.52;;;28.41;24.17
47592;BME280;33317;33.356;-117.184;2023-07-13T04:43:28;99176.93;;;29.15;23.81
47592;BME280;33317;33.356;-117.184;2023-07-13T04:46:02;99179.32;;;29.41;23.52
47592;BME280;33317;33.356;-117.184;2023-07-13T04:48:31;99182.89;;;29.13;23.66
47592;BME280;33317;33.356;-117.184;2023-07-13T04:51:01;99186.33;;;29.41;23.14
47592;BME280;33317;33.356;-117.184;2023-07-13T04:53:31;99185.75;;;29.51;23.01
47592;BME280;33317;33.356;-117.184;2023-07-13T04:56:00;99186.77;;;29.40;23.43
47592;BME280;33317;33.356;-117.184;2023-07-13T04:58:28;99186.71;;;29.60;23.51
47592;BME280;33317;33.356;-117.184;2023-07-13T05:01:00;99185.34;;;29.51;23.51
47592;BME280;33317;33.356;-117.184;2023-07-13T05:03:30;99190.73;;;30.03;23.54
47592;BME280;33317;33.356;-117.184;2023-07-13T05:06:06;99190.37;;;30.03;23.36
47592;BME280;33317;33.356;-117.184;2023-07-13T05:08:37;99193.98;;;29.90;23.31
47592;BME280;33317;33.356;-117.184;2023-07-13T05:11:07;99197.71;;;30.20;23.42
47592;BME280;33317;33.356;-117.184;2023-07-13T05:13:35;99199.39;;;30.13;23.32
47592;BME280;33317;33.356;-117.184;2023-07-13T05:16:06;99200.32;;;30.36;23.38
47592;BME280;33317;33.356;-117.184;2023-07-13T05:18:34;99201.56;;;30.26;23.32
47592;BME280;33317;33.356;-117.184;2023-07-13T05:21:05;99205.25;;;30.44;23.28
47592;BME280;33317;33.356;-117.184;2023-07-13T05:23:35;99211.54;;;30.54;23.19
47592;BME280;33317;33.356;-117.184;2023-07-13T05:26:05;99212.36;;;30.77;23.31
47592;BME280;33317;33.356;-117.184;2023-07-13T05:28:33;99210.55;;;30.88;23.18
47592;BME280;33317;33.356;-117.184;2023-07-13T05:31:02;99210.03;;;30.97;23.13
47592;BME280;33317;33.356;-117.184;2023-07-13T05:33:31;99207.62;;;30.96;23.27
47592;BME280;33317;33.356;-117.184;2023-07-13T05:36:03;99207.28;;;30.62;23.49
47592;BME280;33317;33.356;-117.184;2023-07-13T05:38:32;99204.38;;;30.67;23.43
47592;BME280;33317;33.356;-117.184;2023-07-13T05:41:02;99203.59;;;30.65;23.50
47592;BME280;33317;33.356;-117.184;2023-07-13T05:43:30;99207.58;;;30.66;23.55
47592;BME280;33317;33.356;-117.184;2023-07-13T05:45:59;99212.15;;;30.76;23.58
47592;BME280;33317;33.356;-117.184;2023-07-13T05:48:28;99212.42;;;30.79;23.69
47592;BME280;33317;33.356;-117.184;2023-07-13T05:50:58;99215.16;;;30.70;23.64
47592;BME280;33317;33.356;-117.184;2023-07-13T05:53:27;99217.39;;;31.02;23.55
47592;BME280;33317;33.356;-117.184;2023-07-13T05:55:56;99217.05;;;30.82;23.55
47592;BME280;33317;33.356;-117.184;2023-07-13T05:58:25;99219.59;;;30.85;23.54
47592;BME280;33317;33.356;-117.184;2023-07-13T06:01:01;99221.40;;;30.86;23.56
47592;BME280;33317;33.356;-117.184;2023-07-13T06:03:30;99223.73;;;30.92;23.55
47592;BME280;33317;33.356;-117.184;2023-07-13T06:06:00;99222.43;;;30.94;23.55
47592;BME280;33317;33.356;-117.184;2023-07-13T06:08:29;99229.65;;;30.93;23.59
47592;BME280;33317;33.356;-117.184;2023-07-13T06:11:04;99233.72;;;30.89;23.66
47592;BME280;33317;33.356;-117.184;2023-07-13T06:13:37;99230.21;;;30.91;23.66
47592;BME280;33317;33.356;-117.184;2023-07-13T06:16:09;99231.70;;;30.91;23.71
47592;BME280;33317;33.356;-117.184;2023-07-13T06:18:39;99235.50;;;30.94;23.70
47592;BME280;33317;33.356;-117.184;2023-07-13T06:21:09;99236.37;;;30.94;23.71
47592;BME280;33317;33.356;-117.184;2023-07-13T06:23:38;99234.52;;;30.91;23.74
47592;BME280;33317;33.356;-117.184;2023-07-13T06:26:07;99237.68;;;30.89;23.80
47592;BME280;33317;33.356;-117.184;2023-07-13T06:28:37;99237.06;;;30.87;23.88
47592;BME280;33317;33.356;-117.184;2023-07-13T06:31:07;99240.30;;;30.87;23.91
47592;BME280;33317;33.356;-117.184;2023-07-13T06:33:36;99238.98;;;30.87;23.89
47592;BME280;33317;33.356;-117.184;2023-07-13T06:36:06;99243.99;;;30.85;23.94
47592;BME280;33317;33.356;-117.184;2023-07-13T06:38:37;99245.63;;;30.83;23.99
47592;BME280;33317;33.356;-117.184;2023-07-13T06:41:07;99245.89;;;30.83;24.00
47592;BME280;33317;33.356;-117.184;2023-07-13T06:43:35;99244.81;;;30.81;24.05
47592;BME280;33317;33.356;-117.184;2023-07-13T06:46:06;99242.21;;;30.80;24.07
47592;BME280;33317;33.356;-117.184;2023-07-13T06:48:36;99241.26;;;30.77;24.14
47592;BME280;33317;33.356;-117.184;2023-07-13T06:51:05;99239.11;;;30.77;24.16
47592;BME280;33317;33.356;-117.184;2023-07-13T06:53:35;99239.55;;;30.94;24.19
47592;BME280;33317;33.356;-117.184;2023-07-13T06:56:03;99239.17;;;30.93;24.40
47592;BME280;33317;33.356;-117.184;2023-07-13T06:58:35;99240.77;;;30.69;24.33
47592;BME280;33317;33.356;-117.184;2023-07-13T07:01:03;99239.32;;;30.70;24.33
47592;BME280;33317;33.356;-117.184;2023-07-13T07:03:32;99241.39;;;30.62;24.60
47592;BME280;33317;33.356;-117.184;2023-07-13T07:06:05;99242.59;;;30.49;24.72
47592;BME280;33317;33.356;-117.184;2023-07-13T07:08:38;99241.50;;;30.64;24.60
47592;BME280;33317;33.356;-117.184;2023-07-13T07:11:07;99239.34;;;30.64;24.60
47592;BME280;33317;33.356;-117.184;2023-07-13T07:13:36;99240.74;;;30.67;24.56
47592;BME280;33317;33.356;-117.184;2023-07-13T07:16:06;99241.33;;;30.66;24.65
47592;BME280;33317;33.356;-117.184;2023-07-13T07:18:36;99241.93;;;30.66;24.61
47592;BME280;33317;33.356;-117.184;2023-07-13T07:21:04;99239.83;;;30.66;24.73
47592;BME280;33317;33.356;-117.184;2023-07-13T07:23:33;99237.01;;;30.63;24.70
47592;BME280;33317;33.356;-117.184;2023-07-13T07:26:05;99237.03;;;30.64;24.70
47592;BME280;33317;33.356;-117.184;2023-07-13T07:28:33;99238.16;;;30.85;24.78
47592;BME280;33317;33.356;-117.184;2023-07-13T07:31:02;99235.36;;;30.58;24.86
47592;BME280;33317;33.356;-117.184;2023-07-13T07:33:31;99237.01;;;30.58;24.89
47592;BME280;33317;33.356;-117.184;2023-07-13T07:36:01;99231.60;;;30.81;24.96
47592;BME280;33317;33.356;-117.184;2023-07-13T07:38:31;99230.58;;;30.56;24.97
47592;BME280;33317;33.356;-117.184;2023-07-13T07:41:03;99228.64;;;30.55;25.00
47592;BME280;33317;33.356;-117.184;2023-07-13T07:43:33;99230.54;;;30.55;25.06
47592;BME280;33317;33.356;-117.184;2023-07-13T07:46:04;99233.42;;;30.77;25.02
47592;BME280;33317;33.356;-117.184;2023-07-13T07:48:33;99234.88;;;30.55;25.06
47592;BME280;33317;33.356;-117.184;2023-07-13T07:51:02;99234.07;;;30.52;25.09
47592;BME280;33317;33.356;-117.184;2023-07-13T07:53:31;99230.17;;;30.50;25.06
47592;BME280;33317;33.356;-117.184;2023-07-13T07:55:59;99226.22;;;30.45;25.24
47592;BME280;33317;33.356;-117.184;2023-07-13T07:58:27;99224.14;;;30.44;25.28
47592;BME280;33317;33.356;-117.184;2023-07-13T08:01:03;99223.60;;;30.14;25.39
47592;BME280;33317;33.356;-117.184;2023-07-13T08:03:31;99223.74;;;30.62;25.31
47592;BME280;33317;33.356;-117.184;2023-07-13T08:06:00;99221.90;;;30.59;25.44
47592;BME280;33317;33.356;-117.184;2023-07-13T08:08:28;99219.20;;;30.35;25.44
47592;BME280;33317;33.356;-117.184;2023-07-13T08:10:57;99220.06;;;30.33;25.37
47592;BME280;33317;33.356;-117.184;2023-07-13T08:13:25;99217.61;;;30.33;25.43
47592;BME280;33317;33.356;-117.184;2023-07-13T08:15:55;99210.65;;;30.55;25.45
47592;BME280;33317;33.356;-117.184;2023-07-13T08:18:24;99212.19;;;30.30;25.43
47592;BME280;33317;33.356;-117.184;2023-07-13T08:20:52;99210.33;;;30.46;25.43
47592;BME280;33317;33.356;-117.184;2023-07-13T08:23:22;99210.42;;;30.46;25.50
47592;BME280;33317;33.356;-117.184;2023-07-13T08:25:52;99206.77;;;30.44;25.56
47592;BME280;33317;33.356;-117.184;2023-07-13T08:28:21;99205.96;;;30.43;25.48
47592;BME280;33317;33.356;-117.184;2023-07-13T08:30:50;99205.84;;;30.40;25.56
47592;BME280;33317;33.356;-117.184;2023-07-13T08:33:19;99203.43;;;30.38;25.59
47592;BME280;33317;33.356;-117.184;2023-07-13T08:35:48;99203.11;;;30.14;25.71
47592;BME280;33317;33.356;-117.184;2023-07-13T08:38:18;99201.24;;;30.35;25.70
47592;BME280;33317;33.356;-117.184;2023-07-13T08:40:50;99200.87;;;30.34;25.84
47592;BME280;33317;33.356;-117.184;2023-07-13T08:43:23;99198.55;;;30.35;25.78
47592;BME280;33317;33.356;-117.184;2023-07-13T08:46:04;99198.18;;;30.35;25.75
47592;BME280;33317;33.356;-117.184;2023-07-13T08:48:38;99196.12;;;30.34;25.74
47592;BME280;33317;33.356;-117.184;2023-07-13T08:51:21;99194.53;;;30.12;25.87
47592;BME280;33317;33.356;-117.184;2023-07-13T08:53:57;99197.28;;;30.37;25.84
47592;BME280;33317;33.356;-117.184;2023-07-13T08:56:29;99198.30;;;30.36;25.93
47592;BME280;33317;33.356;-117.184;2023-07-13T08:59:02;99197.19;;;30.34;25.72
47592;BME280;33317;33.356;-117.184;2023-07-13T09:01:46;99197.25;;;30.28;25.95
47592;BME280;33317;33.356;-117.184;2023-07-13T09:04:19;99194.63;;;30.54;25.91
47592;BME280;33317;33.356;-117.184;2023-07-13T09:06:59;99192.94;;;30.03;26.04
47592;BME280;33317;33.356;-117.184;2023-07-13T09:09:41;99187.71;;;30.21;25.95
47592;BME280;33317;33.356;-117.184;2023-07-13T09:12:22;99183.56;;;30.20;25.98
47592;BME280;33317;33.356;-117.184;2023-07-13T09:14:56;99182.30;;;30.16;26.14
47592;BME280;33317;33.356;-117.184;2023-07-13T09:17:32;99177.83;;;30.12;26.10
47592;BME280;33317;33.356;-117.184;2023-07-13T09:20:10;99172.66;;;30.33;26.09
47592;BME280;33317;33.356;-117.184;2023-07-13T09:22:41;99166.69;;;30.02;26.12
47592;BME280;33317;33.356;-117.184;2023-07-13T09:25:24;99169.79;;;30.00;26.30
47592;BME280;33317;33.356;-117.184;2023-07-13T09:28:00;99164.16;;;29.99;26.11
47592;BME280;33317;33.356;-117.184;2023-07-13T09:30:37;99159.19;;;30.24;26.23
47592;BME280;33317;33.356;-117.184;2023-07-13T09:33:07;99156.61;;;29.95;26.23
47592;BME280;33317;33.356;-117.184;2023-07-13T09:35:36;99156.99;;;30.15;26.29
47592;BME280;33317;33.356;-117.184;2023-07-13T09:38:13;99159.02;;;29.85;26.42
47592;BME280;33317;33.356;-117.184;2023-07-13T09:40:53;99155.86;;;30.04;26.36
47592;BME280;33317;33.356;-117.184;2023-07-13T09:43:25;99150.80;;;30.07;26.45
47592;BME280;33317;33.356;-117.184;2023-07-13T09:45:54;99150.23;;;29.75;26.53
47592;BME280;33317;33.356;-117.184;2023-07-13T09:48:23;99150.47;;;29.79;26.38
47592;BME280;33317;33.356;-117.184;2023-07-13T09:50:57;99147.19;;;30.05;26.37
47592;BME280;33317;33.356;-117.184;2023-07-13T09:53:32;99147.97;;;30.06;26.43
47592;BME280;33317;33.356;-117.184;2023-07-13T09:56:00;99143.76;;;29.76;26.45
47592;BME280;33317;33.356;-117.184;2023-07-13T09:58:30;99140.56;;;29.92;26.58
47592;BME280;33317;33.356;-117.184;2023-07-13T10:01:00;99139.23;;;29.92;26.52
47592;BME280;33317;33.356;-117.184;2023-07-13T10:03:31;99137.29;;;29.88;26.56
47592;BME280;33317;33.356;-117.184;2023-07-13T10:06:11;99135.95;;;29.85;26.60
47592;BME280;33317;33.356;-117.184;2023-07-13T10:08:40;99138.19;;;29.89;26.53
47592;BME280;33317;33.356;-117.184;2023-07-13T10:11:11;99138.95;;;29.89;26.51
47592;BME280;33317;33.356;-117.184;2023-07-13T10:13:44;99137.94;;;29.55;26.63
47592;BME280;33317;33.356;-117.184;2023-07-13T10:16:14;99139.89;;;29.80;26.59
47592;BME280;33317;33.356;-117.184;2023-07-13T10:18:46;99136.85;;;29.75;26.62
47592;BME280;33317;33.356;-117.184;2023-07-13T10:21:18;99139.13;;;29.66;26.71
47592;BME280;33317;33.356;-117.184;2023-07-13T10:23:51;99135.37;;;29.68;26.71
47592;BME280;33317;33.356;-117.184;2023-07-13T10:26:25;99133.72;;;29.57;26.78
47592;BME280;33317;33.356;-117.184;2023-07-13T10:28:57;99135.83;;;29.58;26.78
47592;BME280;33317;33.356;-117.184;2023-07-13T10:31:29;99131.01;;;29.61;26.72
47592;BME280;33317;33.356;-117.184;2023-07-13T10:33:59;99129.01;;;29.34;26.78
47592;BME280;33317;33.356;-117.184;2023-07-13T10:36:34;99126.48;;;29.65;26.76
47592;BME280;33317;33.356;-117.184;2023-07-13T10:39:10;99125.27;;;29.64;26.76
47592;BME280;33317;33.356;-117.184;2023-07-13T10:41:43;99123.08;;;29.36;26.79
47592;BME280;33317;33.356;-117.184;2023-07-13T10:44:19;99121.88;;;29.34;26.75
47592;BME280;33317;33.356;-117.184;2023-07-13T10:46:49;99119.55;;;29.55;26.80
47592;BME280;33317;33.356;-117.184;2023-07-13T10:49:19;99119.34;;;29.56;26.81
47592;BME280;33317;33.356;-117.184;2023-07-13T10:51:48;99118.48;;;29.26;26.88
47592;BME280;33317;33.356;-117.184;2023-07-13T10:54:22;99114.52;;;29.77;26.81
47592;BME280;33317;33.356;-117.184;2023-07-13T10:57:13;99111.15;;;29.53;26.76
47592;BME280;33317;33.356;-117.184;2023-07-13T10:59:42;99110.87;;;29.41;27.01
47592;BME280;33317;33.356;-117.184;2023-07-13T11:02:15;99109.98;;;29.44;26.97
47592;BME280;33317;33.356;-117.184;2023-07-13T11:04:49;99113.05;;;29.43;26.99
47592;BME280;33317;33.356;-117.184;2023-07-13T11:07:24;99113.49;;;29.40;27.02
47592;BME280;33317;33.356;-117.184;2023-07-13T11:09:54;99113.67;;;29.54;26.91
47592;BME280;33317;33.356;-117.184;2023-07-13T11:12:50;99116.96;;;29.48;26.95
47592;BME280;33317;33.356;-117.184;2023-07-13T11:15:32;99122.51;;;29.54;26.99
47592;BME280;33317;33.356;-117.184;2023-07-13T11:18:04;99120.71;;;29.48;27.00
47592;BME280;33317;33.356;-117.184;2023-07-13T11:20:40;99122.54;;;29.40;27.01
47592;BME280;33317;33.356;-117.184;2023-07-13T11:23:43;99123.72;;;29.51;27.06
47592;BME280;33317;33.356;-117.184;2023-07-13T11:26:40;99124.86;;;29.63;27.03
47592;BME280;33317;33.356;-117.184;2023-07-13T11:29:18;99117.55;;;29.35;27.07
47592;BME280;33317;33.356;-117.184;2023-07-13T11:31:55;99114.29;;;29.68;27.18
47592;BME280;33317;33.356;-117.184;2023-07-13T11:34:30;99114.62;;;29.18;27.19
47592;BME280;33317;33.356;-117.184;2023-07-13T11:37:00;99113.71;;;29.13;27.27
47592;BME280;33317;33.356;-117.184;2023-07-13T11:39:32;99112.31;;;29.59;27.22
47592;BME280;33317;33.356;-117.184;2023-07-13T11:42:05;99110.31;;;29.32;27.23
47592;BME280;33317;33.356;-117.184;2023-07-13T11:44:41;99108.19;;;29.05;27.27
47592;BME280;33317;33.356;-117.184;2023-07-13T11:47:16;99106.80;;;29.03;27.28
47592;BME280;33317;33.356;-117.184;2023-07-13T11:49:55;99113.35;;;29.41;27.43
47592;BME280;33317;33.356;-117.184;2023-07-13T11:52:30;99114.73;;;29.00;27.28
47592;BME280;33317;33.356;-117.184;2023-07-13T11:55:02;99115.99;;;28.84;27.46
47592;BME280;33317;33.356;-117.184;2023-07-13T11:57:36;99117.35;;;28.84;27.58
47592;BME280;33317;33.356;-117.184;2023-07-13T12:00:14;99117.50;;;29.38;27.43
47592;BME280;33317;33.356;-117.184;2023-07-13T12:02:47;99117.99;;;28.92;27.41
47592;BME280;33317;33.356;-117.184;2023-07-13T12:05:18;99115.55;;;29.20;27.28
47592;BME280;33317;33.356;-117.184;2023-07-13T12:07:47;99117.64;;;29.14;27.38
47592;BME280;33317;33.356;-117.184;2023-07-13T12:10:21;99116.82;;;28.87;27.44
47592;BME280;33317;33.356;-117.184;2023-07-13T12:12:53;99116.75;;;28.92;27.33
47592;BME280;33317;33.356;-117.184;2023-07-13T12:15:23;99122.83;;;29.03;27.27
47592;BME280;33317;33.356;-117.184;2023-07-13T12:17:52;99126.46;;;29.18;27.31
47592;BME280;33317;33.356;-117.184;2023-07-13T12:20:26;99129.00;;;28.97;27.28
47592;BME280;33317;33.356;-117.184;2023-07-13T12:22:55;99127.34;;;28.91;27.39
47592;BME280;33317;33.356;-117.184;2023-07-13T12:25:24;99129.08;;;29.07;27.51
47592;BME280;33317;33.356;-117.184;2023-07-13T12:27:53;99132.36;;;28.91;27.47
47592;BME280;33317;33.356;-117.184;2023-07-13T12:30:27;99130.39;;;29.28;27.51
47592;BME280;33317;33.356;-117.184;2023-07-13T12:33:00;99128.99;;;29.14;27.37
47592;BME280;33317;33.356;-117.184;2023-07-13T12:35:30;99128.49;;;29.01;27.57
47592;BME280;33317;33.356;-117.184;2023-07-13T12:37:58;99134.67;;;29.04;27.47
47592;BME280;33317;33.356;-117.184;2023-07-13T12:40:31;99139.92;;;29.17;27.64
47592;BME280;33317;33.356;-117.184;2023-07-13T12:43:01;99141.22;;;28.89;27.63
47592;BME280;33317;33.356;-117.184;2023-07-13T12:45:30;99141.69;;;28.96;27.75
47592;BME280;33317;33.356;-117.184;2023-07-13T12:48:05;99140.82;;;28.76;27.54
47592;BME280;33317;33.356;-117.184;2023-07-13T12:50:38;99140.71;;;29.01;27.49